createdAt,value
2023-03-27T00:02:04.788Z,101635.72
2023-03-27T00:04:31.338Z,101641.66
2023-03-27T00:06:59.395Z,101648.41
2023-03-27T00:09:27.259Z,101650.97
2023-03-27T00:11:56.242Z,101655.22
2023-03-27T00:14:23.839Z,101660.28
2023-03-27T00:16:50.955Z,101661.13
2023-03-27T00:19:18.828Z,101660.28
2023-03-27T00:21:45.364Z,101658.59
2023-03-27T00:24:12.572Z,101662.00
2023-03-27T00:26:40.915Z,101661.13
2023-03-27T00:29:08.049Z,101663.66
2023-03-27T00:31:35.080Z,101674.69
2023-03-27T00:34:01.857Z,101683.13
2023-03-27T00:36:28.470Z,101683.13
2023-03-27T00:38:54.883Z,101685.66
2023-03-27T00:41:22.785Z,101691.56
2023-03-27T00:43:54.117Z,101686.50
2023-03-27T00:46:43.783Z,101691.56
2023-03-27T00:49:13.154Z,101692.41
2023-03-27T00:51:42.573Z,101689.88
2023-03-27T00:54:10.836Z,101692.41
2023-03-27T00:56:38.649Z,101699.19
2023-03-27T00:59:21.049Z,101702.56
2023-03-27T01:01:48.619Z,101707.63
2023-03-27T01:04:20.378Z,101710.97
2023-03-27T01:06:50.189Z,101715.19
2023-03-27T01:09:20.238Z,101713.47
2023-03-27T01:12:08.978Z,101721.88
2023-03-27T01:15:00.813Z,101729.44
2023-03-27T01:17:52.157Z,101731.94
2023-03-27T01:20:19.107Z,101740.41
2023-03-27T01:23:58.724Z,101738.72
2023-03-27T01:26:36.800Z,101741.34
2023-03-27T01:29:29.983Z,101746.44
2023-03-27T01:32:50.644Z,101741.38
2023-03-27T01:35:58.160Z,101753.25
2023-03-27T01:38:49.185Z,101753.28
2023-03-27T01:41:29.748Z,101758.38
2023-03-27T01:44:14.677Z,101760.88
2023-03-27T01:46:56.669Z,101757.47
2023-03-27T01:49:32.963Z,101756.59
2023-03-27T01:52:04.862Z,101754.03
2023-03-27T01:54:35.964Z,101758.22
2023-03-27T01:57:05.336Z,101764.09
2023-03-27T01:59:35.861Z,101775.09
2023-03-27T02:02:13.088Z,101769.16
2023-03-27T02:04:49.097Z,101766.63
2023-03-27T02:07:20.474Z,101772.59
2023-03-27T02:09:55.489Z,101780.19
2023-03-27T02:12:33.740Z,101789.44
2023-03-27T02:15:23.706Z,101789.38
2023-03-27T02:18:05.372Z,101796.03
2023-03-27T02:20:33.374Z,101792.59
2023-03-27T02:23:00.659Z,101798.44
2023-03-27T02:25:34.967Z,101800.00
2023-03-27T02:28:35.477Z,101808.44
2023-03-27T02:31:32.801Z,101806.69
2023-03-27T02:34:00.474Z,101810.88
2023-03-27T02:36:54.923Z,101806.59
2023-03-27T02:39:40.138Z,101814.94
2023-03-27T02:42:38.970Z,101813.13
2023-03-27T02:45:20.847Z,101815.59
2023-03-27T02:47:54.580Z,101816.38
2023-03-27T02:50:35.447Z,101821.41
2023-03-27T02:53:05.182Z,101823.88
2023-03-27T02:55:38.948Z,101827.22
2023-03-27T02:58:14.280Z,101822.94
2023-03-27T03:00:48.614Z,101823.78
2023-03-27T03:03:38.830Z,101833.94
2023-03-27T03:06:06.941Z,101831.41
2023-03-27T03:08:38.131Z,101839.88
2023-03-27T03:11:09.042Z,101846.66
2023-03-27T03:13:35.926Z,101851.81
2023-03-27T03:16:02.438Z,101849.25
2023-03-27T03:18:28.835Z,101859.38
2023-03-27T03:20:55.694Z,101857.63
2023-03-27T03:23:23.534Z,101860.06
2023-03-27T03:25:52.606Z,101865.00
2023-03-27T03:28:19.181Z,101879.25
2023-03-27T03:30:50.382Z,101875.75
2023-03-27T03:33:19.466Z,101878.22
2023-03-27T03:35:48.400Z,101883.22
2023-03-27T03:38:16.244Z,101884.03
2023-03-27T03:40:42.651Z,101896.63
2023-03-27T03:43:09.064Z,101904.22
2023-03-27T03:45:35.663Z,101909.22
2023-03-27T03:48:02.196Z,101908.31
2023-03-27T03:50:28.665Z,101911.63
2023-03-27T03:52:55.100Z,101918.34
2023-03-27T03:55:21.538Z,101914.00
2023-03-27T03:57:49.038Z,101916.47
2023-03-27T04:00:16.986Z,101919.75
2023-03-27T04:02:44.067Z,101927.31
2023-03-27T04:05:11.063Z,101928.06
2023-03-27T04:07:39.998Z,101928.03
2023-03-27T04:10:08.592Z,101922.06
2023-03-27T04:12:35.044Z,101937.22
2023-03-27T04:15:01.442Z,101937.19
2023-03-27T04:17:28.440Z,101936.28
2023-03-27T04:19:54.841Z,101941.31
2023-03-27T04:22:22.869Z,101948.91
2023-03-27T04:24:50.581Z,101945.56
2023-03-27T04:27:17.836Z,101948.97
2023-03-27T04:29:47.694Z,101945.59
2023-03-27T04:32:19.074Z,101948.09
2023-03-27T04:34:47.171Z,101953.94
2023-03-27T04:37:14.597Z,101956.44
2023-03-27T04:39:43.436Z,101971.56
2023-03-27T04:42:10.521Z,101967.25
2023-03-27T04:44:37.736Z,101979.03
2023-03-27T04:49:46.946Z,101985.66
2023-03-27T04:52:14.341Z,101989.88
2023-03-27T04:54:42.010Z,101987.50
2023-03-27T04:57:09.932Z,101985.06
2023-03-27T04:59:37.204Z,101986.06
2023-03-27T05:02:04.999Z,101994.63
2023-03-27T05:04:32.228Z,101997.16
2023-03-27T05:07:00.055Z,101989.53
2023-03-27T05:09:26.633Z,102000.50
2023-03-27T05:11:53.060Z,101996.22
2023-03-27T05:14:22.502Z,101999.53
2023-03-27T05:16:52.453Z,102004.53
2023-03-27T05:19:20.153Z,102007.78
2023-03-27T05:21:47.625Z,102011.91
2023-03-27T05:24:15.408Z,102015.25
2023-03-27T05:26:43.259Z,102013.63
2023-03-27T05:29:09.898Z,102022.13
2023-03-27T05:31:37.046Z,102020.41
2023-03-27T05:34:04.248Z,102024.63
2023-03-27T05:36:30.716Z,102028.81
2023-03-27T05:38:57.989Z,102025.41
2023-03-27T05:41:24.946Z,102030.44
2023-03-27T05:43:51.784Z,102026.16
2023-03-27T05:46:20.774Z,102035.41
2023-03-27T05:48:48.414Z,102032.00
2023-03-27T05:51:15.133Z,102032.84
2023-03-27T05:53:42.146Z,102035.38
2023-03-27T05:56:09.623Z,102038.81
2023-03-27T05:58:36.520Z,102038.81
2023-03-27T06:01:03.459Z,102041.38
2023-03-27T06:03:30.533Z,102047.34
2023-03-27T06:06:00.202Z,102044.84
2023-03-27T06:08:29.395Z,102039.06
2023-03-27T06:10:55.978Z,102046.75
2023-03-27T06:13:24.070Z,102046.03
2023-03-27T06:15:53.990Z,102047.78
2023-03-27T06:18:20.619Z,102057.19
2023-03-27T06:20:47.188Z,102062.31
2023-03-27T06:23:14.428Z,102052.28
2023-03-27T06:25:40.844Z,102061.75
2023-03-27T06:28:09.450Z,102066.06
2023-03-27T06:30:39.503Z,102064.47
2023-03-27T06:33:07.735Z,102067.00
2023-03-27T06:35:35.181Z,102073.81
2023-03-27T06:38:04.618Z,102077.25
2023-03-27T06:40:31.956Z,102087.53
2023-03-27T06:43:04.277Z,102088.63
2023-03-27T06:45:33.943Z,102078.81
2023-03-27T06:48:15.342Z,102084.16
2023-03-27T06:50:48.642Z,102088.44
2023-03-27T06:53:26.489Z,102091.22
2023-03-27T06:55:54.795Z,102093.09
2023-03-27T06:58:21.709Z,102102.59
2023-03-27T07:00:49.840Z,102097.69
2023-03-27T07:03:17.919Z,102096.94
2023-03-27T07:05:45.063Z,102098.72
2023-03-27T07:08:23.643Z,102112.31
2023-03-27T07:11:09.856Z,102106.47
2023-03-27T07:13:38.686Z,102105.81
2023-03-27T07:16:05.827Z,102114.59
2023-03-27T07:18:32.410Z,102122.56
2023-03-27T07:20:59.132Z,102122.03
2023-03-27T07:23:26.674Z,102119.69
2023-03-27T07:25:58.099Z,102136.06
2023-03-27T07:28:24.900Z,102136.22
2023-03-27T07:30:51.377Z,102132.13
2023-03-27T07:33:18.560Z,102139.16
2023-03-27T07:35:48.065Z,102146.94
2023-03-27T07:38:14.754Z,102148.75
2023-03-27T07:40:46.009Z,102146.38
2023-03-27T07:43:13.497Z,102152.47
2023-03-27T07:45:41.581Z,102155.06
2023-03-27T07:48:11.491Z,102156.03
2023-03-27T07:50:38.228Z,102152.69
2023-03-27T07:53:06.453Z,102151.09
2023-03-27T07:55:36.767Z,102154.56
2023-03-27T07:58:04.066Z,102162.28
2023-03-27T08:00:31.474Z,102159.81
2023-03-27T08:03:06.754Z,102168.34
2023-03-27T08:05:33.689Z,102166.63
2023-03-27T08:08:00.165Z,102162.41
2023-03-27T08:10:27.508Z,102167.53
2023-03-27T08:12:53.921Z,102170.09
2023-03-27T08:15:20.434Z,102175.19
2023-03-27T08:17:47.827Z,102171.75
2023-03-27T08:20:15.274Z,102184.50
2023-03-27T08:22:41.918Z,102198.84
2023-03-27T08:25:10.263Z,102197.19
2023-03-27T08:27:36.937Z,102193.84
2023-03-27T08:30:04.511Z,102186.28
2023-03-27T08:32:31.826Z,102205.06
2023-03-27T08:34:58.513Z,102199.97
2023-03-27T08:37:25.043Z,102213.56
2023-03-27T08:39:51.424Z,102215.28
2023-03-27T08:42:27.493Z,102210.19
2023-03-27T08:44:55.300Z,102216.13
2023-03-27T08:47:33.862Z,102216.97
2023-03-27T08:50:06.412Z,102220.41
2023-03-27T08:52:34.116Z,102214.50
2023-03-27T08:55:20.815Z,102228.97
2023-03-27T08:57:50.227Z,102237.50
2023-03-27T09:00:27.800Z,102241.75
2023-03-27T09:03:03.941Z,102253.69
2023-03-27T09:05:44.323Z,102255.41
2023-03-27T09:08:27.873Z,102252.84
2023-03-27T09:11:08.217Z,102251.97
2023-03-27T09:13:47.045Z,102248.50
2023-03-27T09:16:21.427Z,102257.81
2023-03-27T09:19:02.760Z,102256.81
2023-03-27T09:21:40.648Z,102256.97
2023-03-27T09:24:13.502Z,102276.47
2023-03-27T09:26:39.912Z,102301.19
2023-03-27T09:29:20.167Z,102326.13
2023-03-27T09:31:49.179Z,102331.38
2023-03-27T09:34:25.145Z,102344.25
2023-03-27T09:36:51.705Z,102352.94
2023-03-27T09:39:23.673Z,102353.16
2023-03-27T09:41:57.959Z,102345.16
2023-03-27T09:44:28.537Z,102336.47
2023-03-27T09:47:16.893Z,102308.41
2023-03-27T09:49:52.945Z,102317.13
2023-03-27T09:52:48.787Z,102319.88
2023-03-27T09:55:31.891Z,102313.81
2023-03-27T09:58:14.159Z,102316.13
2023-03-27T10:00:40.722Z,102318.34
2023-03-27T10:03:20.021Z,102314.41
2023-03-27T10:05:49.416Z,102313.66
2023-03-27T10:08:32.175Z,102308.56
2023-03-27T10:10:59.103Z,102310.41
2023-03-27T10:13:29.220Z,102312.97
2023-03-27T10:16:00.858Z,102312.25
2023-03-27T10:18:29.872Z,102314.88
2023-03-27T10:21:06.638Z,102315.75
2023-03-27T10:23:44.013Z,102311.56
2023-03-27T10:26:18.764Z,102307.34
2023-03-27T10:28:51.586Z,102308.22
2023-03-27T10:31:33.148Z,102292.03
2023-03-27T10:34:05.964Z,102301.44
2023-03-27T10:36:35.303Z,102299.72
2023-03-27T10:39:06.665Z,102298.00
2023-03-27T10:41:36.151Z,102302.25
2023-03-27T10:44:13.482Z,102300.56
2023-03-27T10:46:41.010Z,102315.06
2023-03-27T10:49:10.525Z,102314.88
2023-03-27T10:51:48.079Z,102334.97
2023-03-27T10:54:42.424Z,102323.69
2023-03-27T10:57:18.599Z,102332.19
2023-03-27T10:59:54.242Z,102330.88
2023-03-27T11:02:29.183Z,102320.84
2023-03-27T11:05:01.366Z,102320.13
2023-03-27T11:07:42.468Z,102327.84
2023-03-27T11:10:29.161Z,102325.31
2023-03-27T11:13:01.542Z,102316.78
2023-03-27T11:15:36.857Z,102324.38
2023-03-27T11:18:12.505Z,102341.50
2023-03-27T11:20:50.266Z,102321.88
2023-03-27T11:23:28.536Z,102327.81
2023-03-27T11:25:59.729Z,102340.56
2023-03-27T11:28:43.345Z,102347.38
2023-03-27T11:31:22.002Z,102350.88
2023-03-27T11:33:55.090Z,102393.53
2023-03-27T11:36:24.418Z,102407.66
2023-03-27T11:39:15.419Z,102407.91
2023-03-27T11:41:47.030Z,102419.28
2023-03-27T11:44:13.711Z,102414.53
2023-03-27T11:47:02.007Z,102405.03
2023-03-27T11:49:47.736Z,102398.28
2023-03-27T11:52:32.528Z,102394.56
2023-03-27T11:55:31.247Z,102403.59
2023-03-27T11:58:17.414Z,102399.72
2023-03-27T12:00:52.152Z,102394.81
2023-03-27T12:03:25.045Z,102393.28
2023-03-27T12:06:05.606Z,102391.63
2023-03-27T12:08:41.200Z,102391.66
2023-03-27T12:11:10.536Z,102384.09
2023-03-27T12:14:17.657Z,102385.00
2023-03-27T12:17:10.821Z,102390.13
2023-03-27T12:19:53.048Z,102369.66
2023-03-27T12:22:49.303Z,102384.13
2023-03-27T12:25:41.357Z,102409.72
2023-03-27T12:28:26.044Z,102406.91
2023-03-27T12:30:59.057Z,102428.06
2023-03-27T12:33:59.783Z,102432.31
2023-03-27T12:36:30.896Z,102428.91
2023-03-27T12:38:57.891Z,102439.19
2023-03-27T12:41:33.509Z,102430.69
2023-03-27T12:44:03.609Z,102442.53
2023-03-27T12:46:33.150Z,102456.81
2023-03-27T12:49:13.630Z,102457.50
2023-03-27T12:52:02.749Z,102457.63
2023-03-27T12:54:31.681Z,102449.16
2023-03-27T12:57:22.279Z,102451.06
2023-03-27T12:59:48.785Z,102440.78
2023-03-27T13:02:15.850Z,102444.13
2023-03-27T13:05:01.004Z,102446.84
2023-03-27T13:07:41.339Z,102448.56
2023-03-27T13:10:23.174Z,102448.63
2023-03-27T13:13:20.283Z,102453.84
2023-03-27T13:16:02.627Z,102433.47
2023-03-27T13:18:47.222Z,102441.13
2023-03-27T13:21:36.371Z,102451.38
2023-03-27T13:24:20.802Z,102435.19
2023-03-27T13:27:19.457Z,102441.19
2023-03-27T13:29:51.402Z,102429.28
2023-03-27T13:32:38.798Z,102447.00
2023-03-27T13:35:27.426Z,102444.13
2023-03-27T13:38:00.723Z,102449.28
2023-03-27T13:40:34.463Z,102456.00
2023-03-27T13:43:12.416Z,102462.75
2023-03-27T13:45:46.833Z,102453.31
2023-03-27T13:48:50.400Z,102443.84
2023-03-27T13:51:26.553Z,102440.47
2023-03-27T13:54:12.836Z,102446.53
2023-03-27T13:57:03.388Z,102438.94
2023-03-27T13:59:58.808Z,102428.91
2023-03-27T14:02:34.276Z,102436.75
2023-03-27T14:05:26.742Z,102444.44
2023-03-27T14:08:31.179Z,102436.03
2023-03-27T14:11:07.080Z,102443.78
2023-03-27T14:14:01.317Z,102440.38
2023-03-27T14:16:30.703Z,102436.13
2023-03-27T14:19:28.633Z,102425.06
2023-03-27T14:22:18.530Z,102431.06
2023-03-27T14:24:49.033Z,102434.50
2023-03-27T14:27:19.357Z,102438.78
2023-03-27T14:29:50.389Z,102442.19
2023-03-27T14:32:18.132Z,102420.84
2023-03-27T14:34:54.029Z,102438.75
2023-03-27T14:37:29.010Z,102431.91
2023-03-27T14:39:57.176Z,102443.88
2023-03-27T14:42:32.987Z,102448.84
2023-03-27T14:45:10.962Z,102454.84
2023-03-27T14:47:37.498Z,102460.00
2023-03-27T14:50:06.111Z,102450.66
2023-03-27T14:52:35.217Z,102459.22
2023-03-27T14:55:03.832Z,102453.22
2023-03-27T14:57:30.446Z,102457.50
2023-03-27T14:59:57.277Z,102460.06
2023-03-27T15:02:31.795Z,102459.22
2023-03-27T15:05:08.191Z,102481.34
2023-03-27T15:07:36.283Z,102481.25
2023-03-27T15:10:05.498Z,102470.06
2023-03-27T15:12:35.978Z,102473.34
2023-03-27T15:15:03.503Z,102482.81
2023-03-27T15:17:34.496Z,102475.28
2023-03-27T15:20:09.938Z,102474.47
2023-03-27T15:22:43.124Z,102475.22
2023-03-27T15:25:32.032Z,102483.78
2023-03-27T15:28:03.160Z,102475.31
2023-03-27T15:30:40.650Z,102481.34
2023-03-27T15:33:17.341Z,102485.63
2023-03-27T15:35:47.670Z,102487.34
2023-03-27T15:38:17.147Z,102493.31
2023-03-27T15:40:51.026Z,102494.19
2023-03-27T15:43:26.335Z,102491.63
2023-03-27T15:46:13.806Z,102501.81
2023-03-27T15:48:45.156Z,102491.56
2023-03-27T15:51:31.856Z,102512.88
2023-03-27T15:53:58.956Z,102506.09
2023-03-27T15:56:41.034Z,102510.38
2023-03-27T15:59:10.976Z,102530.00
2023-03-27T16:01:39.764Z,102514.66
2023-03-27T16:04:08.246Z,102517.25
2023-03-27T16:06:41.075Z,102513.84
2023-03-27T16:09:18.937Z,102517.22
2023-03-27T16:11:48.328Z,102532.59
2023-03-27T16:14:22.515Z,102536.03
2023-03-27T16:16:53.634Z,102540.25
2023-03-27T16:19:20.230Z,102536.66
2023-03-27T16:21:55.242Z,102545.03
2023-03-27T16:24:21.791Z,102547.50
2023-03-27T16:26:50.368Z,102554.25
2023-03-27T16:29:18.659Z,102550.91
2023-03-27T16:31:45.308Z,102557.81
2023-03-27T16:34:22.515Z,102550.13
2023-03-27T16:36:50.002Z,102552.66
2023-03-27T16:39:16.486Z,102562.09
2023-03-27T16:41:43.156Z,102555.25
2023-03-27T16:44:09.573Z,102557.81
2023-03-27T16:46:36.065Z,102562.91
2023-03-27T16:49:02.645Z,102578.28
2023-03-27T16:51:29.604Z,102573.13
2023-03-27T16:53:56.068Z,102571.22
2023-03-27T16:56:22.558Z,102566.88
2023-03-27T16:58:49.232Z,102571.91
2023-03-27T17:01:15.699Z,102573.53
2023-03-27T17:03:42.279Z,102575.19
2023-03-27T17:06:11.452Z,102582.72
2023-03-27T17:08:38.013Z,102598.69
2023-03-27T17:11:07.593Z,102603.59
2023-03-27T17:13:34.412Z,102600.88
2023-03-27T17:16:01.110Z,102608.38
2023-03-27T17:18:27.764Z,102604.75
2023-03-27T17:20:54.343Z,102609.78
2023-03-27T17:23:21.181Z,102608.84
2023-03-27T17:25:48.368Z,102612.16
2023-03-27T17:28:15.051Z,102617.31
2023-03-27T17:30:56.663Z,102614.75
2023-03-27T17:33:30.195Z,102618.97
2023-03-27T17:35:57.042Z,102619.06
2023-03-27T17:38:24.118Z,102617.28
2023-03-27T17:40:51.160Z,102624.06
2023-03-27T17:43:17.733Z,102625.69
2023-03-27T17:45:44.327Z,102621.34
2023-03-27T17:48:11.552Z,102631.44
2023-03-27T17:50:38.978Z,102629.69
2023-03-27T17:53:05.514Z,102633.94
2023-03-27T17:55:31.998Z,102638.13
2023-03-27T17:58:08.977Z,102644.03
2023-03-27T18:00:38.491Z,102638.91
2023-03-27T18:03:06.301Z,102642.28
2023-03-27T18:05:38.061Z,102638.91
2023-03-27T18:08:06.057Z,102638.03
2023-03-27T18:10:34.818Z,102652.50
2023-03-27T18:13:02.525Z,102648.25
2023-03-27T18:15:29.603Z,102655.03
2023-03-27T18:17:56.088Z,102653.31
2023-03-27T18:20:22.569Z,102659.13
2023-03-27T18:22:49.096Z,102669.97
2023-03-27T18:25:15.588Z,102675.06
2023-03-27T18:27:43.372Z,102672.47
2023-03-27T18:30:13.511Z,102678.28
2023-03-27T18:32:42.720Z,102672.25
2023-03-27T18:35:19.778Z,102676.38
2023-03-27T18:37:46.816Z,102674.59
2023-03-27T18:40:15.426Z,102675.34
2023-03-27T18:42:43.923Z,102677.84
2023-03-27T18:45:12.661Z,102676.88
2023-03-27T18:47:39.433Z,102673.44
2023-03-27T18:50:06.971Z,102680.13
2023-03-27T18:52:33.419Z,102685.13
2023-03-27T18:54:59.860Z,102684.19
2023-03-27T18:57:27.629Z,102688.31
2023-03-27T18:59:55.251Z,102688.25
2023-03-27T19:02:21.797Z,102697.56
2023-03-27T19:04:48.558Z,102701.72
2023-03-27T19:07:16.412Z,102704.16
2023-03-27T19:09:43.180Z,102704.94
2023-03-27T19:12:10.525Z,102711.66
2023-03-27T19:14:36.969Z,102716.69
2023-03-27T19:17:03.994Z,102711.47
2023-03-27T19:19:31.987Z,102707.22
2023-03-27T19:21:58.680Z,102706.31
2023-03-27T19:24:25.196Z,102703.63
2023-03-27T19:26:52.667Z,102692.53
2023-03-27T19:29:19.271Z,102694.09
2023-03-27T19:31:45.718Z,102711.81
2023-03-27T19:34:12.265Z,102704.91
2023-03-27T19:36:38.644Z,102698.91
2023-03-27T19:39:05.091Z,102708.97
2023-03-27T19:41:31.607Z,102703.75
2023-03-27T19:44:00.190Z,102702.84
2023-03-27T19:46:28.592Z,102703.63
2023-03-27T19:48:55.842Z,102702.75
2023-03-27T19:51:22.893Z,102699.19
2023-03-27T19:53:49.376Z,102695.72
2023-03-27T19:56:16.145Z,102696.47
2023-03-27T19:58:42.745Z,102698.91
2023-03-27T20:01:09.392Z,102702.16
2023-03-27T20:03:38.419Z,102702.06
2023-03-27T20:06:11.796Z,102699.41
2023-03-27T20:08:39.938Z,102697.66
2023-03-27T20:11:07.179Z,102705.22
2023-03-27T20:13:42.407Z,102704.25
2023-03-27T20:16:16.478Z,102698.31
2023-03-27T20:18:43.541Z,102705.94
2023-03-27T20:21:13.711Z,102705.91
2023-03-27T20:23:41.856Z,102703.31
2023-03-27T20:26:09.111Z,102710.00
2023-03-27T20:28:35.719Z,102709.88
2023-03-27T20:31:04.197Z,102714.91
2023-03-27T20:33:31.099Z,102713.13
2023-03-27T20:35:57.774Z,102718.06
2023-03-27T20:38:28.659Z,102726.47
2023-03-27T20:40:56.401Z,102725.53
2023-03-27T20:43:22.969Z,102730.53
2023-03-27T20:45:54.885Z,102721.94
2023-03-27T20:48:21.928Z,102729.50
2023-03-27T20:50:53.280Z,102730.19
2023-03-27T20:53:33.902Z,102731.66
2023-03-27T20:56:05.831Z,102726.47
2023-03-27T20:58:35.399Z,102722.97
2023-03-27T21:01:05.020Z,102726.25
2023-03-27T21:03:34.930Z,102729.53
2023-03-27T21:06:06.157Z,102723.44
2023-03-27T21:08:34.478Z,102723.28
2023-03-27T21:11:01.989Z,102721.50
2023-03-27T21:13:28.919Z,102722.94
2023-03-27T21:15:55.400Z,102721.16
2023-03-27T21:18:21.811Z,102720.25
2023-03-27T21:20:48.354Z,102719.25
2023-03-27T21:23:15.113Z,102725.03
2023-03-27T21:25:42.022Z,102727.44
2023-03-27T21:28:10.734Z,102729.75
2023-03-27T21:30:47.354Z,102741.53
2023-03-27T21:33:16.400Z,102737.22
2023-03-27T21:35:46.760Z,102740.50
2023-03-27T21:38:15.518Z,102736.19
2023-03-27T21:40:42.815Z,102735.41
2023-03-27T21:43:09.409Z,102748.06
2023-03-27T21:45:36.447Z,102738.66
2023-03-27T21:48:03.253Z,102740.25
2023-03-27T21:50:29.833Z,102745.31
2023-03-27T21:52:56.445Z,102748.56
2023-03-27T21:55:23.075Z,102745.03
2023-03-27T21:57:49.629Z,102743.28
2023-03-27T22:00:16.322Z,102743.25
2023-03-27T22:02:42.894Z,102744.84
2023-03-27T22:05:09.850Z,102756.63
2023-03-27T22:07:36.743Z,102754.00
2023-03-27T22:10:06.192Z,102757.38
2023-03-27T22:12:36.979Z,102763.19
2023-03-27T22:15:05.948Z,102757.94
2023-03-27T22:17:34.835Z,102753.63
2023-03-27T22:20:01.284Z,102760.31
2023-03-27T22:22:27.729Z,102757.75
2023-03-27T22:24:54.225Z,102755.16
2023-03-27T22:27:20.662Z,102759.34
2023-03-27T22:29:47.106Z,102763.50
2023-03-27T22:32:13.673Z,102764.25
2023-03-27T22:34:40.269Z,102765.09
2023-03-27T22:37:06.738Z,102776.78
2023-03-27T22:39:33.337Z,102772.41
2023-03-27T22:41:59.726Z,102773.97
2023-03-27T22:44:26.386Z,102772.19
2023-03-27T22:46:53.027Z,102772.09
2023-03-27T22:49:19.586Z,102779.66
2023-03-27T22:51:46.017Z,102774.53
2023-03-27T22:54:12.562Z,102779.59
2023-03-27T22:56:39.086Z,102778.66
2023-03-27T22:59:06.096Z,102787.09
2023-03-27T23:01:32.649Z,102787.88
2023-03-27T23:03:59.217Z,102784.50
2023-03-27T23:06:25.920Z,102790.38
2023-03-27T23:08:52.565Z,102788.63
2023-03-27T23:11:19.374Z,102792.78
2023-03-27T23:13:46.409Z,102793.53
2023-03-27T23:16:13.381Z,102788.41
2023-03-27T23:18:40.218Z,102786.59
2023-03-27T23:21:09.303Z,102790.69
2023-03-27T23:23:38.307Z,102793.91
2023-03-27T23:26:06.628Z,102791.28
2023-03-27T23:28:35.653Z,102786.16
2023-03-27T23:31:07.628Z,102791.16
2023-03-27T23:33:37.498Z,102800.34
2023-03-27T23:36:06.073Z,102795.25
2023-03-27T23:38:32.988Z,102802.72
2023-03-27T23:41:01.083Z,102794.22
2023-03-27T23:43:29.009Z,102788.97
2023-03-27T23:45:56.098Z,102792.28
2023-03-27T23:48:23.360Z,102790.53
2023-03-27T23:50:49.970Z,102784.44
2023-03-27T23:53:16.999Z,102785.22
2023-03-27T23:55:43.462Z,102790.22
2023-03-27T23:58:09.958Z,102798.69
